Time;durP1;ratioP1;P1;durP2;ratioP2;P2;SDS_P1;SDS_P2;PMS_P1;PMS_P2;Temp;Humidity;BMP_temperature;BMP_pressure;BME280_temperature;BME280_humidity;BME280_pressure;Samples;Min_cycle;Max_cycle;Signal;HPM_P1;HPM_P2
2022/10/13 00:02:44;;;;;;;12.20;4.60;;;19.60;62.60;;;;;;6072123;29;20041;-73
2022/10/13 00:05:47;;;;;;;6.03;3.53;;;19.50;62.90;;;;;;6078494;29;20450;-72
2022/10/13 00:08:49;;;;;;;8.02;4.00;;;19.50;63.10;;;;;;6074905;29;20041;-73
2022/10/13 00:11:50;;;;;;;10.43;4.10;;;19.50;63.20;;;;;;6078560;29;20051;-73
2022/10/13 00:14:51;;;;;;;17.05;4.63;;;19.50;63.50;;;;;;6085705;29;20076;-73
2022/10/13 00:17:51;;;;;;;8.93;4.70;;;19.40;63.70;;;;;;6077338;29;20041;-73
2022/10/13 00:20:52;;;;;;;13.32;4.07;;;19.40;64.10;;;;;;6081904;29;20045;-73
2022/10/13 00:23:54;;;;;;;16.00;4.63;;;19.40;64.40;;;;;;6084692;29;20041;-73
2022/10/13 00:26:55;;;;;;;66.15;18.02;;;19.30;64.60;;;;;;6083952;29;20040;-73
2022/10/13 00:29:56;;;;;;;30.25;8.95;;;19.30;64.70;;;;;;6081713;29;20450;-73
2022/10/13 00:32:56;;;;;;;12.15;4.85;;;19.30;64.80;;;;;;6080540;29;20037;-73
2022/10/13 00:35:57;;;;;;;14.55;5.25;;;19.30;64.80;;;;;;6080750;29;20041;-73
2022/10/13 00:38:58;;;;;;;10.30;4.82;;;19.30;64.80;;;;;;6084886;29;20079;-73
2022/10/13 00:42:00;;;;;;;9.75;4.20;;;19.30;64.70;;;;;;6082869;29;20369;-72
2022/10/13 00:45:18;;;;;;;10.07;5.30;;;19.40;64.50;;;;;;6082578;29;20041;-73
2022/10/13 00:48:29;;;;;;;6.03;4.13;;;19.40;64.20;;;;;;6079897;29;20123;-72
2022/10/13 00:51:33;;;;;;;15.73;4.95;;;19.40;63.90;;;;;;6081709;29;20072;-73
2022/10/13 00:54:34;;;;;;;14.65;4.65;;;19.40;63.70;;;;;;6075084;29;20040;-73
2022/10/13 00:57:39;;;;;;;12.98;4.85;;;19.40;63.50;;;;;;6095087;29;20048;-72
2022/10/13 01:00:41;;;;;;;12.10;4.10;;;19.40;63.50;;;;;;6082194;29;20048;-72
2022/10/13 01:03:43;;;;;;;8.52;5.18;;;19.40;63.60;;;;;;6095126;29;20366;-72
2022/10/13 01:06:44;;;;;;;10.07;4.43;;;19.50;63.60;;;;;;6080119;29;20040;-72
2022/10/13 01:09:47;;;;;;;7.45;4.28;;;19.50;63.60;;;;;;6093179;29;20040;-72
2022/10/13 01:13:12;;;;;;;9.10;4.63;;;19.50;63.50;;;;;;6078091;29;20033;-73
2022/10/13 01:16:22;;;;;;;11.02;4.20;;;19.50;63.50;;;;;;6076131;29;20422;-73
2022/10/13 01:20:16;;;;;;;10.48;4.00;;;19.60;63.40;;;;;;6078648;29;20060;-73
2022/10/13 01:23:22;;;;;;;6.43;4.63;;;19.60;63.40;;;;;;6036549;29;20037;-72
2022/10/13 01:26:52;;;;;;;23.58;4.80;;;19.60;63.40;;;;;;6028722;29;20124;-73
2022/10/13 01:30:19;;;;;;;13.27;5.13;;;19.70;63.50;;;;;;6031079;29;20049;-74
2022/10/13 01:33:29;;;;;;;13.15;4.90;;;19.70;63.40;;;;;;6027739;29;20097;-74
2022/10/13 01:36:47;;;;;;;11.40;4.53;;;19.70;63.40;;;;;;6014383;29;20079;-73
2022/10/13 01:40:18;;;;;;;14.68;5.05;;;19.70;63.40;;;;;;6045257;29;20128;-73
2022/10/13 01:43:24;;;;;;;8.05;4.75;;;19.60;63.50;;;;;;6018455;29;20045;-73
2022/10/13 01:46:29;;;;;;;11.27;5.10;;;19.50;63.60;;;;;;6025455;29;20042;-73
2022/10/13 01:49:34;;;;;;;9.82;4.78;;;19.50;63.80;;;;;;6016526;29;20055;-73
2022/10/13 01:52:37;;;;;;;10.43;4.80;;;19.50;63.80;;;;;;6052368;29;20157;-73
2022/10/13 01:55:51;;;;;;;9.18;5.22;;;19.60;63.80;;;;;;6039994;29;20466;-73
2022/10/13 01:58:55;;;;;;;14.23;4.57;;;19.60;63.80;;;;;;6049320;29;20087;-73
2022/10/13 02:02:30;;;;;;;22.17;5.55;;;19.60;63.70;;;;;;6078057;29;20029;-73
2022/10/13 02:05:47;;;;;;;7.90;4.00;;;19.60;63.70;;;;;;6077045;29;20040;-74
2022/10/13 02:09:12;;;;;;;5.95;3.67;;;19.70;63.50;;;;;;6075798;29;20048;-73
2022/10/13 02:12:41;;;;;;;11.90;3.92;;;19.70;63.30;;;;;;6076872;29;20036;-73
2022/10/13 02:15:47;;;;;;;9.95;3.72;;;19.70;62.90;;;;;;6076721;29;20059;-73
2022/10/13 02:18:50;;;;;;;9.05;3.72;;;19.70;62.40;;;;;;6076860;29;20036;-72
2022/10/13 02:21:52;;;;;;;11.15;3.67;;;19.70;62.20;;;;;;6073453;29;20036;-72
2022/10/13 02:24:53;;;;;;;13.00;3.97;;;19.70;62.00;;;;;;6076227;29;20114;-73
2022/10/13 02:27:56;;;;;;;11.00;3.72;;;19.60;61.70;;;;;;6073335;29;20127;-72
2022/10/13 02:30:57;;;;;;;8.18;3.78;;;19.60;61.70;;;;;;6073526;29;20418;-72
2022/10/13 02:33:59;;;;;;;10.63;3.38;;;19.50;61.70;;;;;;6045532;29;20476;-73
2022/10/13 02:37:00;;;;;;;13.10;3.95;;;19.50;61.70;;;;;;6082211;29;20059;-73
2022/10/13 02:40:01;;;;;;;11.63;4.28;;;19.40;61.70;;;;;;6076488;29;20096;-73
2022/10/13 02:43:02;;;;;;;6.82;3.42;;;19.30;61.80;;;;;;6073723;29;20481;-72
2022/10/13 02:46:03;;;;;;;14.93;4.35;;;19.30;61.90;;;;;;6081186;29;20036;-72
2022/10/13 02:49:03;;;;;;;11.60;5.18;;;19.20;62.10;;;;;;6054829;29;20055;-72
2022/10/13 02:52:04;;;;;;;6.30;3.88;;;19.20;62.40;;;;;;6073378;29;20032;-73
2022/10/13 02:55:06;;;;;;;8.48;3.97;;;19.10;62.50;;;;;;6073986;29;20055;-73
2022/10/13 02:58:07;;;;;;;8.20;3.80;;;19.10;62.70;;;;;;6074936;29;20040;-72
2022/10/13 03:01:12;;;;;;;9.63;3.95;;;19.10;62.90;;;;;;6067378;29;20381;-73
2022/10/13 03:04:13;;;;;;;7.10;4.07;;;19.10;63.00;;;;;;6077146;29;20032;-72
2022/10/13 03:07:13;;;;;;;13.70;4.35;;;19.10;63.00;;;;;;6079369;29;20139;-72
2022/10/13 03:10:15;;;;;;;8.35;3.80;;;19.10;63.00;;;;;;6076941;29;20044;-73
2022/10/13 03:13:16;;;;;;;7.03;3.65;;;19.10;62.80;;;;;;6075126;29;20096;-72
2022/10/13 03:16:16;;;;;;;11.38;4.07;;;19.10;62.80;;;;;;6076747;29;20057;-72
2022/10/13 03:19:17;;;;;;;8.38;4.30;;;19.10;62.60;;;;;;6085610;29;20040;-73
2022/10/13 03:22:18;;;;;;;10.57;4.03;;;19.10;62.50;;;;;;6075609;29;20104;-72
2022/10/13 03:25:19;;;;;;;7.68;3.92;;;19.10;62.50;;;;;;6076057;29;20048;-73
2022/10/13 03:28:20;;;;;;;7.75;3.20;;;19.20;62.60;;;;;;6072214;29;20119;-72
2022/10/13 03:31:25;;;;;;;6.18;3.70;;;19.20;62.50;;;;;;6076601;29;20085;-73
2022/10/13 03:34:30;;;;;;;8.65;3.25;;;19.20;62.40;;;;;;6076934;29;20032;-73
2022/10/13 03:37:31;;;;;;;6.13;3.70;;;19.20;62.30;;;;;;6075443;29;20043;-73
2022/10/13 03:40:35;;;;;;;8.98;3.90;;;19.20;62.10;;;;;;6076209;29;20064;-72
2022/10/13 03:43:36;;;;;;;5.65;3.95;;;19.20;62.10;;;;;;6073117;29;20076;-73
2022/10/13 03:46:37;;;;;;;12.63;4.32;;;19.20;61.80;;;;;;6072794;29;20059;-72
2022/10/13 03:49:37;;;;;;;5.80;3.40;;;19.20;61.80;;;;;;6074516;29;20052;-72
2022/10/13 03:52:38;;;;;;;10.02;3.63;;;19.20;61.80;;;;;;6070428;29;20140;-73
2022/10/13 03:55:39;;;;;;;11.68;3.33;;;19.20;61.40;;;;;;6073285;29;20060;-73
2022/10/13 03:58:41;;;;;;;10.40;3.92;;;19.20;61.20;;;;;;6062733;29;20041;-73
2022/10/13 04:01:42;;;;;;;5.88;3.58;;;19.10;60.90;;;;;;6077512;29;20063;-74
2022/10/13 04:04:43;;;;;;;7.95;3.13;;;19.10;60.90;;;;;;6076153;29;20068;-73
2022/10/13 04:07:44;;;;;;;6.78;3.88;;;19.10;61.00;;;;;;6064213;29;20045;-73
2022/10/13 04:11:09;;;;;;;6.47;3.70;;;19.00;60.90;;;;;;6082581;29;20473;-73
2022/10/13 04:14:13;;;;;;;7.93;3.60;;;19.00;61.10;;;;;;6086674;29;20041;-73
2022/10/13 04:17:14;;;;;;;11.32;3.50;;;19.00;61.20;;;;;;6096815;29;20422;-73
2022/10/13 04:20:16;;;;;;;8.93;3.85;;;18.90;61.40;;;;;;6079265;29;20048;-73
2022/10/13 04:23:17;;;;;;;9.70;3.42;;;18.90;61.60;;;;;;6075119;29;20045;-73
2022/10/13 04:26:22;;;;;;;8.93;4.07;;;18.80;61.50;;;;;;6081717;29;20492;-73
2022/10/13 04:29:23;;;;;;;10.80;4.15;;;18.80;62.00;;;;;;6081704;29;20381;-73
2022/10/13 04:32:26;;;;;;;16.65;4.30;;;18.80;62.10;;;;;;6080919;29;20100;-73
2022/10/13 04:35:27;;;;;;;7.07;3.78;;;18.70;62.30;;;;;;6078470;29;20032;-73
2022/10/13 04:38:28;;;;;;;6.93;3.95;;;18.70;62.60;;;;;;6079631;29;20044;-73
2022/10/13 04:41:29;;;;;;;9.93;3.97;;;18.70;63.30;;;;;;6076419;29;20488;-73
2022/10/13 04:44:30;;;;;;;11.05;4.10;;;18.70;62.30;;;;;;6079036;29;20036;-73
2022/10/13 04:47:31;;;;;;;8.15;4.00;;;18.60;62.20;;;;;;6075606;29;20127;-73
2022/10/13 04:50:32;;;;;;;8.73;3.63;;;18.60;62.30;;;;;;6078978;29;20075;-72
2022/10/13 04:53:34;;;;;;;6.22;3.50;;;18.60;62.30;;;;;;6077715;29;20434;-73
2022/10/13 04:56:35;;;;;;;16.08;3.88;;;18.50;62.20;;;;;;6064323;29;20355;-73
2022/10/13 04:59:36;;;;;;;11.18;4.30;;;18.50;62.40;;;;;;6086885;29;20071;-73
2022/10/13 05:02:37;;;;;;;6.95;4.10;;;18.50;63.20;;;;;;6076600;29;20040;-73
2022/10/13 05:05:39;;;;;;;12.77;4.07;;;18.40;62.40;;;;;;6089963;29;20072;-74
2022/10/13 05:08:39;;;;;;;9.27;4.05;;;18.50;62.60;;;;;;6079748;29;20526;-74
2022/10/13 05:11:41;;;;;;;7.28;3.90;;;18.50;62.60;;;;;;6080677;29;20052;-74
2022/10/13 05:14:41;;;;;;;12.32;4.10;;;18.50;62.50;;;;;;6080169;29;20442;-73
2022/10/13 05:17:42;;;;;;;9.15;3.55;;;18.50;62.40;;;;;;6081037;29;20147;-73
2022/10/13 05:20:43;;;;;;;8.07;4.10;;;18.40;62.40;;;;;;6077305;29;20040;-73
2022/10/13 05:23:45;;;;;;;15.35;3.72;;;18.50;62.50;;;;;;6080393;29;20044;-73
2022/10/13 05:26:46;;;;;;;8.10;3.90;;;18.40;62.50;;;;;;6074429;29;20049;-73
2022/10/13 05:29:46;;;;;;;13.05;4.85;;;18.40;62.50;;;;;;6078925;29;20162;-73
2022/10/13 05:32:47;;;;;;;9.55;4.57;;;18.40;62.20;;;;;;6077802;29;20048;-73
2022/10/13 05:35:48;;;;;;;19.63;5.20;;;18.40;62.10;;;;;;6078309;29;20474;-74
2022/10/13 05:38:51;;;;;;;16.55;4.85;;;18.40;62.00;;;;;;6075347;29;20040;-74
2022/10/13 05:41:52;;;;;;;10.25;4.75;;;18.40;62.10;;;;;;6089522;29;20043;-73
2022/10/13 05:44:55;;;;;;;12.85;5.15;;;18.30;62.00;;;;;;6075456;29;20055;-80
2022/10/13 05:47:56;;;;;;;7.93;4.07;;;18.40;62.00;;;;;;6073187;29;20048;-83
2022/10/13 05:50:59;;;;;;;8.40;3.97;;;18.40;62.00;;;;;;6071924;29;20119;-81
2022/10/13 05:54:08;;;;;;;16.48;4.80;;;18.40;62.10;;;;;;6077032;29;20043;-81
2022/10/13 05:57:27;;;;;;;10.75;4.88;;;18.40;62.10;;;;;;6074857;29;20123;-79
2022/10/13 06:00:28;;;;;;;9.00;4.13;;;18.50;62.20;;;;;;6083093;29;20044;-78
2022/10/13 06:03:29;;;;;;;8.50;4.38;;;18.40;62.00;;;;;;6087251;29;20068;-79
2022/10/13 06:06:30;;;;;;;15.48;4.78;;;18.50;62.00;;;;;;6059693;29;20033;-79
2022/10/13 06:09:34;;;;;;;9.40;4.78;;;18.50;61.80;;;;;;6091065;29;20044;-79
2022/10/13 06:12:35;;;;;;;13.35;4.30;;;18.50;61.70;;;;;;6094090;29;20419;-80
2022/10/13 06:15:36;;;;;;;16.85;3.97;;;18.50;61.40;;;;;;6076712;29;20116;-79
2022/10/13 06:18:37;;;;;;;15.20;4.00;;;18.40;61.30;;;;;;6073648;29;20036;-77
2022/10/13 06:21:38;;;;;;;9.00;4.03;;;18.50;61.30;;;;;;6078789;29;20389;-80
2022/10/13 06:24:39;;;;;;;12.23;4.50;;;18.50;61.20;;;;;;6078452;29;20040;-80
2022/10/13 06:27:43;;;;;;;16.75;5.00;;;18.60;61.40;;;;;;6074757;29;20043;-80
2022/10/13 06:30:53;;;;;;;10.82;4.47;;;18.60;61.40;;;;;;6066954;29;20051;-79
2022/10/13 06:33:57;;;;;;;14.80;4.35;;;18.70;61.50;;;;;;6073126;29;20072;-79
2022/10/13 06:36:58;;;;;;;9.38;4.30;;;18.80;62.30;;;;;;6081660;29;20088;-79
2022/10/13 06:39:59;;;;;;;8.35;4.78;;;18.80;61.50;;;;;;6074996;29;20055;-81
2022/10/13 06:43:00;;;;;;;10.93;4.78;;;18.90;61.60;;;;;;6074207;29;20044;-79
2022/10/13 06:46:01;;;;;;;13.02;5.05;;;18.90;61.60;;;;;;6071939;29;20047;-79
2022/10/13 06:49:02;;;;;;;10.85;4.50;;;18.90;61.60;;;;;;6075011;29;20040;-79
2022/10/13 06:52:04;;;;;;;19.58;4.28;;;19.00;61.60;;;;;;6097200;29;20050;-79
2022/10/13 06:55:06;;;;;;;11.40;4.72;;;19.10;61.50;;;;;;6077522;29;20454;-79
2022/10/13 06:58:07;;;;;;;10.80;4.35;;;19.10;61.30;;;;;;6075792;29;20037;-79
2022/10/13 07:01:11;;;;;;;31.05;5.90;;;19.20;61.20;;;;;;6077367;29;20043;-79
2022/10/13 07:04:13;;;;;;;11.88;4.65;;;19.20;61.10;;;;;;6079533;29;20447;-80
2022/10/13 07:07:15;;;;;;;12.10;4.57;;;19.20;61.00;;;;;;6074875;29;20044;-79
2022/10/13 07:10:16;;;;;;;13.57;4.85;;;19.30;61.70;;;;;;6087705;29;20375;-77
2022/10/13 07:13:17;;;;;;;7.47;4.45;;;19.30;60.70;;;;;;6083232;29;20047;-80
2022/10/13 07:16:18;;;;;;;14.93;5.55;;;19.30;60.80;;;;;;6078768;29;20037;-79
2022/10/13 07:19:19;;;;;;;18.63;5.75;;;19.40;60.70;;;;;;6077526;29;20480;-78
2022/10/13 07:22:19;;;;;;;13.25;4.93;;;19.50;61.50;;;;;;6076465;29;20474;-78
2022/10/13 07:25:20;;;;;;;12.95;5.18;;;19.60;60.60;;;;;;6088323;29;20366;-79
2022/10/13 07:28:22;;;;;;;16.88;4.75;;;19.60;60.40;;;;;;6076479;29;20075;-79
2022/10/13 07:31:24;;;;;;;11.70;5.30;;;19.60;60.30;;;;;;6061122;29;20033;-79
2022/10/13 07:34:24;;;;;;;10.00;4.65;;;19.60;60.60;;;;;;6085466;29;20052;-79
2022/10/13 07:37:25;;;;;;;12.50;5.07;;;19.50;60.80;;;;;;6074858;29;20422;-80
2022/10/13 07:40:27;;;;;;;8.75;4.65;;;19.50;60.80;;;;;;6077249;29;20493;-79
2022/10/13 07:43:28;;;;;;;23.02;4.93;;;19.60;60.90;;;;;;6071285;29;20032;-83
2022/10/13 07:46:29;;;;;;;12.27;4.85;;;19.70;60.70;;;;;;6074849;29;20115;-80
2022/10/13 07:49:33;;;;;;;20.70;4.82;;;19.70;60.70;;;;;;6075876;29;20041;-80
2022/10/13 07:52:37;;;;;;;10.73;4.33;;;19.70;60.60;;;;;;6075553;29;20132;-79
2022/10/13 07:55:38;;;;;;;20.25;5.20;;;19.80;60.40;;;;;;6080792;29;20051;-80
2022/10/13 07:58:42;;;;;;;6.38;3.78;;;19.90;60.10;;;;;;6076823;29;20072;-80
2022/10/13 08:01:43;;;;;;;9.57;4.18;;;19.90;59.90;;;;;;6078052;29;20068;-81
2022/10/13 08:04:44;;;;;;;12.05;5.00;;;20.00;59.90;;;;;;6073859;29;20032;-80
2022/10/13 08:07:45;;;;;;;11.10;4.78;;;20.00;59.70;;;;;;6086781;29;20091;-80
2022/10/13 08:10:46;;;;;;;20.40;4.90;;;20.10;59.60;;;;;;6072724;29;20068;-80
2022/10/13 08:13:51;;;;;;;14.82;4.47;;;20.20;59.90;;;;;;6075717;29;20036;-80
2022/10/13 08:16:56;;;;;;;21.60;4.30;;;20.20;59.40;;;;;;6094428;29;20057;-80
2022/10/13 08:19:57;;;;;;;11.63;4.07;;;20.20;59.20;;;;;;6081221;29;20044;-78
2022/10/13 08:23:00;;;;;;;13.63;4.25;;;20.30;58.90;;;;;;6084222;29;20378;-79
2022/10/13 08:26:01;;;;;;;14.02;4.63;;;20.30;58.70;;;;;;6073564;29;20095;-80
2022/10/13 08:29:02;;;;;;;10.35;3.95;;;20.30;58.20;;;;;;6080827;29;20432;-80
2022/10/13 08:32:03;;;;;;;10.85;4.00;;;20.40;58.20;;;;;;6079067;29;20104;-79
2022/10/13 08:35:04;;;;;;;25.90;3.97;;;20.40;58.20;;;;;;6070190;29;20032;-80
2022/10/13 08:38:06;;;;;;;8.45;3.90;;;20.50;58.20;;;;;;6078028;29;20029;-80
2022/10/13 08:41:22;;;;;;;22.88;5.15;;;20.60;57.90;;;;;;6077778;29;20420;-81
2022/10/13 08:44:47;;;;;;;8.00;4.25;;;20.60;57.80;;;;;;6094467;29;20032;-81
2022/10/13 08:47:59;;;;;;;12.70;3.92;;;20.70;57.40;;;;;;6071466;29;20460;-80
2022/10/13 08:51:04;;;;;;;17.30;4.25;;;20.80;57.20;;;;;;6084825;29;20058;-80
2022/10/13 08:54:05;;;;;;;16.52;5.07;;;20.90;57.00;;;;;;6076553;29;20424;-80
2022/10/13 08:57:09;;;;;;;8.93;4.55;;;20.90;57.00;;;;;;6081195;29;20651;-81
2022/10/13 09:00:12;;;;;;;8.32;4.60;;;21.00;56.80;;;;;;6072530;29;20041;-79
2022/10/13 09:03:27;;;;;;;9.68;4.60;;;21.10;56.80;;;;;;6064133;29;20036;-81
2022/10/13 09:06:34;;;;;;;14.65;5.07;;;21.20;56.80;;;;;;6072043;29;20045;-81
2022/10/13 09:09:37;;;;;;;7.63;4.70;;;21.20;56.60;;;;;;6077047;29;20526;-80
2022/10/13 09:12:38;;;;;;;15.15;5.68;;;21.30;56.60;;;;;;6064552;29;20040;-81
2022/10/13 09:15:45;;;;;;;21.27;7.13;;;21.40;56.40;;;;;;6075626;29;20045;-77
2022/10/13 09:18:47;;;;;;;8.73;5.15;;;21.40;56.40;;;;;;6076230;29;20033;-78
2022/10/13 09:22:11;;;;;;;9.43;4.68;;;21.50;56.20;;;;;;6078769;29;20078;-82
2022/10/13 09:25:19;;;;;;;9.48;4.53;;;21.70;55.90;;;;;;6078399;29;20044;-78
2022/10/13 09:28:38;;;;;;;17.38;5.13;;;21.70;55.60;;;;;;6075263;29;20072;-78
2022/10/13 09:31:39;;;;;;;10.95;5.43;;;21.80;55.40;;;;;;6072868;29;20055;-77
2022/10/13 09:34:42;;;;;;;18.38;4.32;;;21.90;55.10;;;;;;6076481;29;20052;-78
2022/10/13 09:37:43;;;;;;;18.92;5.72;;;21.90;54.80;;;;;;6077934;29;20123;-80
2022/10/13 09:40:55;;;;;;;11.45;4.30;;;22.00;54.70;;;;;;6077860;29;20466;-78
2022/10/13 09:44:00;;;;;;;14.43;4.22;;;22.00;54.70;;;;;;6080766;29;20040;-80
2022/10/13 09:47:03;;;;;;;24.02;9.00;;;22.00;54.70;;;;;;6074612;29;20037;-81
2022/10/13 09:50:25;;;;;;;17.45;6.57;;;22.10;54.50;;;;;;6077638;29;20454;-80
2022/10/13 09:53:36;;;;;;;23.67;7.32;;;22.10;54.10;;;;;;6065436;29;20044;-80
2022/10/13 09:56:48;;;;;;;8.05;4.53;;;22.20;54.10;;;;;;6080656;29;20040;-80
2022/10/13 09:59:57;;;;;;;17.60;7.68;;;22.20;54.10;;;;;;6075142;29;20450;-79
2022/10/13 10:03:05;;;;;;;16.60;5.18;;;22.10;53.90;;;;;;6077225;29;20343;-80
2022/10/13 10:06:08;;;;;;;11.38;5.00;;;22.50;53.80;;;;;;6069290;29;20036;-80
2022/10/13 10:09:45;;;;;;;12.85;4.63;;;22.50;53.40;;;;;;6085529;29;20384;-80
2022/10/13 10:12:47;;;;;;;9.45;5.47;;;22.60;53.10;;;;;;6057688;29;20105;-81
2022/10/13 10:16:08;;;;;;;12.00;4.85;;;22.60;52.70;;;;;;6067806;29;20104;-81
2022/10/13 10:19:31;;;;;;;21.58;7.53;;;22.70;52.50;;;;;;6067883;29;20040;-80
2022/10/13 10:23:15;;;;;;;14.77;5.25;;;22.80;52.10;;;;;;6070338;29;20079;-79
2022/10/13 10:26:34;;;;;;;10.77;4.22;;;22.80;51.90;;;;;;5957157;29;20449;-81
2022/10/13 10:29:51;;;;;;;7.55;3.75;;;22.80;51.50;;;;;;5946762;29;20046;-80
2022/10/13 10:32:53;;;;;;;6.00;3.63;;;22.80;51.50;;;;;;5963813;29;20050;-82
2022/10/13 10:36:18;;;;;;;7.72;3.83;;;22.70;51.60;;;;;;5966137;29;20049;-82
2022/10/13 10:39:32;;;;;;;16.60;4.28;;;22.80;51.70;;;;;;5952016;29;20047;-83
2022/10/13 10:43:07;;;;;;;11.43;4.10;;;22.80;51.50;;;;;;5964045;29;20072;-83
2022/10/13 10:46:23;;;;;;;9.35;3.85;;;23.00;51.50;;;;;;5966317;29;20042;-82
2022/10/13 10:49:30;;;;;;;11.27;3.97;;;23.30;51.20;;;;;;5954381;29;20077;-84
2022/10/13 10:53:00;;;;;;;9.82;4.18;;;23.40;50.80;;;;;;5962469;29;20047;-82
2022/10/13 10:56:06;;;;;;;8.10;4.40;;;23.50;50.60;;;;;;5914194;30;20048;-79
2022/10/13 10:59:25;;;;;;;9.45;3.30;;;23.50;50.30;;;;;;5916325;29;20107;-79
2022/10/13 11:02:36;;;;;;;13.85;3.78;;;23.60;49.90;;;;;;5943697;29;20472;-79
2022/10/13 11:05:55;;;;;;;8.38;4.03;;;23.50;49.80;;;;;;5990579;29;20764;-80
2022/10/13 11:08:57;;;;;;;10.98;3.92;;;23.50;50.00;;;;;;6002765;29;20053;-80
2022/10/13 11:11:57;;;;;;;8.60;3.40;;;23.60;50.10;;;;;;5994726;29;20042;-80
2022/10/13 11:15:07;;;;;;;10.85;3.72;;;23.80;50.10;;;;;;6002823;29;20129;-80
2022/10/13 11:18:45;;;;;;;8.73;3.63;;;24.10;49.60;;;;;;6001569;29;20048;-81
2022/10/13 11:21:52;;;;;;;15.75;4.35;;;24.40;49.10;;;;;;5990972;29;20466;-80
2022/10/13 11:24:58;;;;;;;18.75;4.07;;;24.80;47.80;;;;;;5991211;29;20044;-79
2022/10/13 11:27:59;;;;;;;8.27;4.00;;;25.00;47.30;;;;;;5991509;29;20050;-79
2022/10/13 11:31:25;;;;;;;12.38;4.00;;;25.20;46.90;;;;;;6004159;29;20049;-80
2022/10/13 11:34:28;;;;;;;14.10;3.92;;;25.40;46.60;;;;;;6070814;29;20380;-81
2022/10/13 11:37:57;;;;;;;10.27;4.25;;;25.50;46.20;;;;;;6069419;29;20069;-79
2022/10/13 11:41:23;;;;;;;8.77;3.85;;;25.40;46.00;;;;;;6080473;29;20092;-79
2022/10/13 11:44:36;;;;;;;9.30;3.58;;;25.40;46.00;;;;;;6069343;29;20033;-81
2022/10/13 11:48:11;;;;;;;13.85;3.88;;;25.40;46.00;;;;;;6078670;29;20477;-81
2022/10/13 11:51:38;;;;;;;10.18;3.95;;;25.40;45.90;;;;;;6071441;29;20064;-79
2022/10/13 11:54:50;;;;;;;5.65;3.20;;;25.50;45.60;;;;;;5984697;29;20452;-80
2022/10/13 11:58:08;;;;;;;12.68;3.97;;;25.60;45.30;;;;;;5986581;29;20129;-80
2022/10/13 12:01:14;;;;;;;9.35;3.42;;;25.50;45.20;;;;;;6005040;29;20555;-80
2022/10/13 12:04:20;;;;;;;14.18;3.65;;;25.50;45.30;;;;;;5990036;29;20030;-80
2022/10/13 12:07:22;;;;;;;6.93;3.33;;;25.50;45.30;;;;;;5960050;29;20045;-80
2022/10/13 12:10:32;;;;;;;11.07;3.20;;;25.50;45.20;;;;;;6001292;29;20049;-79
2022/10/13 12:13:36;;;;;;;11.63;3.35;;;25.40;45.10;;;;;;6001554;29;20079;-79
2022/10/13 12:16:37;;;;;;;8.70;2.67;;;25.40;45.30;;;;;;6004801;29;20453;-80
2022/10/13 12:19:39;;;;;;;10.80;3.35;;;25.40;45.20;;;;;;5998909;29;20794;-80
2022/10/13 12:22:47;;;;;;;7.35;3.10;;;25.50;45.10;;;;;;6004139;29;20178;-81
2022/10/13 12:25:55;;;;;;;11.13;3.22;;;25.60;45.00;;;;;;6006306;29;20038;-80
2022/10/13 12:29:09;;;;;;;6.38;3.80;;;25.70;44.80;;;;;;5992043;29;20049;-80
2022/10/13 12:32:22;;;;;;;5.05;2.67;;;25.80;44.40;;;;;;6050881;29;20052;-79
2022/10/13 12:35:25;;;;;;;9.75;3.95;;;25.70;44.40;;;;;;6084960;29;20354;-80
2022/10/13 12:38:27;;;;;;;7.93;3.25;;;25.60;44.50;;;;;;6053089;29;20111;-80
2022/10/13 12:41:31;;;;;;;9.57;3.05;;;25.50;44.60;;;;;;6073884;29;20442;-80
2022/10/13 12:44:33;;;;;;;7.05;3.10;;;25.40;44.80;;;;;;6091048;29;20135;-80
2022/10/13 12:47:43;;;;;;;10.43;3.60;;;25.40;44.80;;;;;;6076156;29;20073;-79
2022/10/13 12:50:44;;;;;;;6.45;3.15;;;25.30;44.70;;;;;;6077371;29;20140;-82
2022/10/13 12:53:46;;;;;;;10.25;2.70;;;25.20;44.90;;;;;;6077762;29;20044;-81
2022/10/13 12:56:48;;;;;;;9.25;3.00;;;25.20;45.00;;;;;;6078391;29;20399;-79
2022/10/13 12:59:49;;;;;;;5.38;2.80;;;25.20;45.10;;;;;;6075552;29;20115;-80
2022/10/13 13:02:56;;;;;;;11.38;3.15;;;25.20;44.90;;;;;;6075341;29;20052;-79
2022/10/13 13:06:21;;;;;;;11.63;3.42;;;25.20;44.90;;;;;;6050787;29;20036;-80
2022/10/13 13:09:38;;;;;;;14.80;3.65;;;25.20;45.00;;;;;;6085888;29;20052;-80
2022/10/13 13:12:39;;;;;;;8.48;3.78;;;25.20;45.10;;;;;;6077877;29;20048;-79
2022/10/13 13:15:47;;;;;;;11.98;3.33;;;25.10;45.30;;;;;;6074313;29;20055;-80
2022/10/13 13:18:50;;;;;;;8.65;3.85;;;25.10;45.30;;;;;;6068561;29;20040;-79
2022/10/13 13:21:54;;;;;;;10.38;3.75;;;25.10;45.30;;;;;;6075658;29;20469;-79
2022/10/13 13:24:55;;;;;;;9.95;3.40;;;25.10;45.30;;;;;;6091009;29;20055;-80
2022/10/13 13:27:56;;;;;;;9.43;3.55;;;25.10;45.30;;;;;;6083444;29;20405;-80
2022/10/13 13:30:57;;;;;;;9.52;3.75;;;25.20;45.30;;;;;;6077344;29;20049;-80
2022/10/13 13:33:58;;;;;;;7.90;4.00;;;25.20;45.20;;;;;;6073483;29;20134;-80
2022/10/13 13:37:01;;;;;;;14.60;3.88;;;25.20;45.20;;;;;;6082237;29;20033;-82
2022/10/13 13:40:04;;;;;;;8.60;3.20;;;25.20;45.10;;;;;;6077546;29;20083;-79
2022/10/13 13:43:05;;;;;;;17.33;3.58;;;25.30;45.20;;;;;;6078069;29;20067;-80
2022/10/13 13:46:18;;;;;;;9.43;3.28;;;25.30;45.10;;;;;;6076135;29;20036;-80
2022/10/13 13:49:18;;;;;;;7.05;3.08;;;25.20;45.20;;;;;;6090120;29;20053;-79
2022/10/13 13:52:20;;;;;;;7.00;3.35;;;25.20;45.10;;;;;;6076427;29;20052;-79
2022/10/13 13:55:22;;;;;;;15.85;4.60;;;25.10;45.00;;;;;;6076779;29;20049;-79
2022/10/13 13:58:23;;;;;;;20.58;4.28;;;25.10;45.10;;;;;;6078856;29;20124;-81
2022/10/13 14:01:26;;;;;;;13.15;4.03;;;25.10;45.10;;;;;;6077633;29;20036;-80
2022/10/13 14:04:26;;;;;;;11.93;3.50;;;25.10;45.10;;;;;;6073048;29;20534;-79
2022/10/13 14:07:27;;;;;;;8.63;3.60;;;25.10;45.10;;;;;;6078391;29;20319;-77
2022/10/13 14:10:32;;;;;;;6.25;3.70;;;25.10;45.10;;;;;;6082985;29;20048;-77
2022/10/13 14:13:33;;;;;;;13.27;3.67;;;25.00;45.10;;;;;;6070988;29;20491;-77
2022/10/13 14:16:34;;;;;;;7.32;3.35;;;24.90;45.30;;;;;;6074128;29;20414;-82
2022/10/13 14:19:40;;;;;;;10.93;3.30;;;24.90;45.40;;;;;;6075555;29;20047;-80
2022/10/13 14:22:41;;;;;;;9.10;3.97;;;24.80;45.60;;;;;;6074924;29;20534;-80
2022/10/13 14:25:42;;;;;;;11.88;3.90;;;24.80;45.70;;;;;;6075854;29;20054;-80
2022/10/13 14:28:44;;;;;;;13.73;4.53;;;24.70;45.70;;;;;;6072065;29;20404;-79
2022/10/13 14:31:45;;;;;;;13.25;3.60;;;24.70;45.70;;;;;;6080631;29;20071;-78
2022/10/13 14:34:46;;;;;;;16.95;3.83;;;24.60;46.00;;;;;;6066096;29;20044;-79
2022/10/13 14:37:49;;;;;;;19.23;3.40;;;24.50;46.20;;;;;;6089274;29;20068;-79
2022/10/13 14:40:50;;;;;;;12.93;4.22;;;24.50;47.00;;;;;;6071480;29;20127;-78
2022/10/13 14:43:55;;;;;;;10.25;5.00;;;24.50;46.40;;;;;;6054843;29;20056;-78
2022/10/13 14:46:56;;;;;;;8.02;3.80;;;24.50;46.50;;;;;;6088717;29;20052;-79
2022/10/13 14:50:00;;;;;;;6.75;2.88;;;24.50;46.50;;;;;;6086358;29;20092;-78
2022/10/13 14:53:00;;;;;;;6.55;3.30;;;24.50;46.50;;;;;;6106962;29;20051;-79
2022/10/13 14:56:02;;;;;;;4.88;3.38;;;24.50;46.50;;;;;;6066186;29;20085;-79
2022/10/13 14:59:05;;;;;;;4.93;3.30;;;24.40;46.60;;;;;;6074483;29;20058;-79
2022/10/13 15:02:13;;;;;;;11.18;3.05;;;24.40;46.70;;;;;;6073545;29;20103;-78
2022/10/13 15:05:24;;;;;;;14.30;3.33;;;24.40;46.80;;;;;;6061174;29;20374;-79
2022/10/13 15:08:25;;;;;;;8.07;3.47;;;24.40;46.80;;;;;;6056632;29;20055;-80
2022/10/13 15:11:26;;;;;;;9.18;3.67;;;24.50;46.80;;;;;;6073682;29;20041;-79
2022/10/13 15:14:27;;;;;;;9.05;3.72;;;24.50;46.80;;;;;;6089548;29;20386;-78
2022/10/13 15:17:30;;;;;;;8.75;3.60;;;24.50;46.70;;;;;;6081585;29;20037;-78
2022/10/13 15:20:30;;;;;;;6.55;3.45;;;24.50;46.70;;;;;;6062323;29;20044;-79
2022/10/13 15:23:31;;;;;;;8.13;3.78;;;24.50;46.80;;;;;;6073836;29;20407;-80
2022/10/13 15:26:32;;;;;;;10.50;3.38;;;24.50;46.90;;;;;;6075494;29;20478;-80
2022/10/13 15:29:33;;;;;;;15.85;3.10;;;24.40;46.90;;;;;;6067824;29;20120;-79
2022/10/13 15:32:34;;;;;;;13.70;3.25;;;24.40;47.00;;;;;;6066789;29;20052;-79
2022/10/13 15:35:35;;;;;;;10.48;3.97;;;24.30;47.00;;;;;;6086626;29;20039;-79
2022/10/13 15:38:36;;;;;;;10.82;3.33;;;24.30;47.10;;;;;;6068629;29;20060;-79
2022/10/13 15:41:37;;;;;;;7.88;3.33;;;24.20;47.20;;;;;;6073108;29;20123;-79
2022/10/13 15:44:38;;;;;;;9.48;3.67;;;24.10;47.30;;;;;;6072616;29;20414;-79
2022/10/13 15:47:39;;;;;;;9.57;3.40;;;24.10;47.60;;;;;;6076469;29;20115;-79
2022/10/13 15:50:40;;;;;;;8.45;2.97;;;24.00;47.70;;;;;;6072359;29;20029;-79
2022/10/13 15:53:41;;;;;;;11.25;4.80;;;23.90;47.80;;;;;;6076581;29;20477;-79
2022/10/13 15:56:42;;;;;;;10.63;4.18;;;23.90;48.00;;;;;;6064258;29;20255;-78
2022/10/13 15:59:43;;;;;;;15.80;4.13;;;23.80;48.10;;;;;;6078012;29;20036;-79